Time;durP1;ratioP1;P1;durP2;ratioP2;P2;SDS_P1;SDS_P2;PMS_P1;PMS_P2;Temp;Humidity;BMP_temperature;BMP_pressure;BME280_temperature;BME280_humidity;BME280_pressure;Samples;Min_cycle;Max_cycle;Signal;HPM_P1;HPM_P2
2022/09/17 00:01:55;;;;;;;0.50;0.40;;;12.40;78.90;;;;;;5008270;28;20071;-61
2022/09/17 00:04:21;;;;;;;0.50;0.45;;;12.40;78.80;;;;;;5010683;28;20544;-61
2022/09/17 00:06:46;;;;;;;0.98;0.55;;;12.40;78.80;;;;;;5009529;28;20091;-61
2022/09/17 00:09:12;;;;;;;5.97;0.63;;;12.30;78.80;;;;;;5010393;28;20026;-61
2022/09/17 00:11:41;;;;;;;0.93;0.50;;;12.30;78.60;;;;;;5005831;28;20429;-61
2022/09/17 00:14:11;;;;;;;1.58;0.40;;;12.30;78.60;;;;;;5006990;28;20113;-60
2022/09/17 00:16:39;;;;;;;0.52;0.50;;;12.20;78.40;;;;;;5009146;28;20745;-58
2022/09/17 00:19:07;;;;;;;0.30;0.30;;;12.20;78.60;;;;;;5008522;28;20502;-61
2022/09/17 00:21:33;;;;;;;0.82;0.30;;;12.20;78.70;;;;;;5009147;28;20534;-60
2022/09/17 00:24:01;;;;;;;0.40;0.40;;;12.10;78.70;;;;;;5007635;28;20034;-61
2022/09/17 00:26:28;;;;;;;0.82;0.40;;;12.10;78.80;;;;;;5007011;28;21862;-60
2022/09/17 00:28:55;;;;;;;2.50;0.55;;;12.10;79.10;;;;;;5012024;28;20329;-60
2022/09/17 00:31:22;;;;;;;1.05;0.40;;;12.10;79.30;;;;;;5007809;28;20521;-58
2022/09/17 00:33:48;;;;;;;0.30;0.30;;;12.10;79.10;;;;;;5008113;28;20033;-60
2022/09/17 00:36:15;;;;;;;1.25;0.30;;;12.10;79.10;;;;;;5008832;28;20137;-61
2022/09/17 00:38:40;;;;;;;0.82;0.50;;;12.10;79.30;;;;;;5010295;28;20130;-59
2022/09/17 00:41:07;;;;;;;2.03;0.60;;;12.10;79.30;;;;;;5015452;28;20041;-60
2022/09/17 00:43:36;;;;;;;2.25;0.70;;;12.10;79.30;;;;;;5006845;28;20034;-60
2022/09/17 00:46:10;;;;;;;1.90;0.60;;;12.10;79.30;;;;;;5009756;28;20030;-60
2022/09/17 00:48:36;;;;;;;1.88;0.50;;;12.10;79.30;;;;;;5009603;28;20076;-61
2022/09/17 00:51:05;;;;;;;0.77;0.70;;;12.10;79.40;;;;;;5007646;28;20479;-61
2022/09/17 00:53:31;;;;;;;1.27;0.50;;;12.10;79.30;;;;;;5013115;28;20467;-59
2022/09/17 00:56:10;;;;;;;0.70;0.50;;;12.10;79.30;;;;;;5014398;28;20041;-59
2022/09/17 00:58:37;;;;;;;3.20;0.47;;;12.00;79.10;;;;;;5008759;28;20088;-60
2022/09/17 01:01:03;;;;;;;0.98;0.60;;;12.00;79.00;;;;;;5009082;28;20037;-61
2022/09/17 01:03:29;;;;;;;0.73;0.60;;;12.00;78.80;;;;;;5006992;28;20176;-61
2022/09/17 01:06:12;;;;;;;0.50;0.40;;;12.00;79.80;;;;;;5011548;28;20033;-59
2022/09/17 01:08:42;;;;;;;0.52;0.30;;;11.90;79.00;;;;;;5012368;28;20040;-60
2022/09/17 01:11:52;;;;;;;0.57;0.50;;;11.90;79.20;;;;;;5011971;28;20540;-61
2022/09/17 01:14:33;;;;;;;1.23;0.30;;;11.90;79.20;;;;;;5009154;28;20042;-61
2022/09/17 01:17:20;;;;;;;0.45;0.45;;;11.90;80.20;;;;;;5007531;28;20042;-59
2022/09/17 01:19:54;;;;;;;1.00;0.50;;;11.80;79.40;;;;;;5007358;28;20166;-61
2022/09/17 01:22:32;;;;;;;1.02;0.40;;;11.80;79.50;;;;;;5009752;28;20498;-61
2022/09/17 01:25:05;;;;;;;1.25;0.45;;;11.80;79.60;;;;;;5028364;28;20485;-61
2022/09/17 01:27:49;;;;;;;0.50;0.50;;;11.90;79.60;;;;;;5029141;28;20033;-59
2022/09/17 01:30:32;;;;;;;0.50;0.50;;;11.80;79.30;;;;;;5031844;28;20520;-61
2022/09/17 01:33:23;;;;;;;0.50;0.50;;;11.80;79.50;;;;;;5033946;28;20311;-60
2022/09/17 01:36:10;;;;;;;0.98;0.50;;;11.80;79.40;;;;;;5028066;28;20364;-61
2022/09/17 01:38:55;;;;;;;0.43;0.43;;;11.80;79.60;;;;;;5028358;28;20470;-61
2022/09/17 01:41:51;;;;;;;0.83;0.47;;;11.80;79.90;;;;;;5031580;28;20106;-61
2022/09/17 01:44:23;;;;;;;0.63;0.40;;;11.90;79.80;;;;;;5031077;28;20524;-62
2022/09/17 01:47:11;;;;;;;0.43;0.40;;;11.90;79.60;;;;;;5031826;28;20117;-61
2022/09/17 01:49:38;;;;;;;1.83;0.40;;;11.90;79.90;;;;;;5028659;28;20040;-62
2022/09/17 01:52:07;;;;;;;0.73;0.40;;;11.90;80.00;;;;;;5030246;28;20044;-61
2022/09/17 01:54:48;;;;;;;0.45;0.43;;;12.00;80.00;;;;;;5030244;28;20559;-61
2022/09/17 01:57:28;;;;;;;0.40;0.40;;;12.00;80.00;;;;;;5031543;28;20295;-61
2022/09/17 02:00:04;;;;;;;0.85;0.47;;;12.10;80.00;;;;;;5029553;28;20045;-62
2022/09/17 02:02:38;;;;;;;0.40;0.40;;;12.10;79.80;;;;;;5031586;28;20034;-61
2022/09/17 02:05:16;;;;;;;0.85;0.50;;;12.10;79.40;;;;;;5027588;28;20161;-61
2022/09/17 02:07:51;;;;;;;1.50;0.50;;;12.10;79.40;;;;;;5030990;28;20038;-59
2022/09/17 02:10:21;;;;;;;0.85;0.50;;;12.10;79.40;;;;;;5034859;28;20472;-61
2022/09/17 02:13:03;;;;;;;0.50;0.50;;;12.10;79.70;;;;;;5027439;28;20076;-60
2022/09/17 02:15:39;;;;;;;4.60;0.55;;;12.10;79.70;;;;;;5030316;28;20033;-61
2022/09/17 02:18:04;;;;;;;0.60;0.50;;;12.20;79.60;;;;;;5035315;28;20424;-61
2022/09/17 02:20:39;;;;;;;0.52;0.40;;;12.20;79.60;;;;;;5029171;28;20041;-61
2022/09/17 02:23:15;;;;;;;1.38;0.40;;;12.20;79.30;;;;;;5031421;28;20076;-61
2022/09/17 02:25:58;;;;;;;1.15;0.50;;;12.20;79.30;;;;;;5029343;28;20505;-60
2022/09/17 02:28:53;;;;;;;2.10;0.70;;;12.20;79.20;;;;;;5029775;28;20025;-59
2022/09/17 02:31:18;;;;;;;0.50;0.50;;;12.20;79.00;;;;;;5017544;28;20025;-61
2022/09/17 02:33:50;;;;;;;0.68;0.52;;;12.20;79.10;;;;;;5032154;28;20493;-58
2022/09/17 02:36:15;;;;;;;0.60;0.43;;;12.20;78.90;;;;;;5026356;28;20029;-61
2022/09/17 02:38:44;;;;;;;2.13;0.50;;;12.20;78.80;;;;;;5028600;28;20374;-60
2022/09/17 02:41:15;;;;;;;1.60;0.50;;;12.10;78.70;;;;;;5031654;28;20094;-60
2022/09/17 02:44:01;;;;;;;0.70;0.55;;;12.10;78.90;;;;;;5029947;28;20042;-61
2022/09/17 02:46:33;;;;;;;1.52;0.50;;;12.10;79.20;;;;;;5028216;28;20394;-60
2022/09/17 02:49:06;;;;;;;0.50;0.50;;;12.10;79.30;;;;;;5033320;28;20034;-60
2022/09/17 02:51:41;;;;;;;0.73;0.60;;;12.10;79.30;;;;;;5027211;28;20650;-60
2022/09/17 02:54:28;;;;;;;1.60;0.43;;;12.10;79.50;;;;;;5031468;28;20051;-60
2022/09/17 02:57:06;;;;;;;0.50;0.50;;;12.10;79.60;;;;;;5031626;28;20037;-60
2022/09/17 02:59:42;;;;;;;1.35;0.70;;;12.10;79.70;;;;;;5027818;28;20516;-61
2022/09/17 03:02:36;;;;;;;1.50;0.70;;;12.10;79.70;;;;;;5034227;28;20041;-60
2022/09/17 03:05:03;;;;;;;0.73;0.55;;;12.20;79.60;;;;;;5014792;28;20121;-61
2022/09/17 03:07:28;;;;;;;1.40;0.55;;;12.10;79.30;;;;;;5014109;28;20284;-61
2022/09/17 03:09:54;;;;;;;1.25;0.73;;;12.20;79.40;;;;;;5012166;28;20052;-60
2022/09/17 03:12:20;;;;;;;1.30;0.57;;;12.20;79.30;;;;;;5013488;28;20030;-59
2022/09/17 03:14:46;;;;;;;2.60;0.88;;;12.20;79.30;;;;;;5013372;28;20048;-60
2022/09/17 03:17:13;;;;;;;1.00;0.60;;;12.20;79.30;;;;;;5013638;28;20037;-60
2022/09/17 03:19:39;;;;;;;0.90;0.60;;;12.20;79.30;;;;;;5014004;28;20046;-59
2022/09/17 03:22:04;;;;;;;1.00;0.52;;;12.20;79.30;;;;;;5012132;28;20037;-61
2022/09/17 03:24:30;;;;;;;1.58;0.63;;;12.20;79.10;;;;;;5012921;28;20038;-61
2022/09/17 03:26:56;;;;;;;1.00;0.65;;;12.20;79.10;;;;;;5011875;28;20029;-61
2022/09/17 03:29:21;;;;;;;2.00;0.52;;;12.20;78.90;;;;;;5012022;28;20148;-61
2022/09/17 03:31:47;;;;;;;0.88;0.80;;;12.20;78.90;;;;;;5011212;28;20408;-61
2022/09/17 03:34:12;;;;;;;1.38;0.70;;;12.20;78.90;;;;;;5011626;28;20044;-60
2022/09/17 03:36:38;;;;;;;1.20;1.00;;;12.20;78.70;;;;;;5010987;28;20033;-59
2022/09/17 03:39:03;;;;;;;1.00;0.95;;;12.20;78.70;;;;;;5011772;28;20034;-59
2022/09/17 03:41:29;;;;;;;5.95;0.90;;;12.20;78.80;;;;;;5013637;28;20428;-59
2022/09/17 03:43:54;;;;;;;2.67;1.13;;;12.10;78.90;;;;;;5011070;28;20030;-59
2022/09/17 03:46:20;;;;;;;1.40;1.20;;;12.10;78.90;;;;;;5012323;28;20304;-61
2022/09/17 03:48:46;;;;;;;1.20;1.10;;;12.10;78.90;;;;;;5010990;28;20045;-62
2022/09/17 03:51:11;;;;;;;1.20;1.10;;;12.10;78.90;;;;;;5012998;28;20046;-61
2022/09/17 03:53:37;;;;;;;1.40;1.00;;;12.10;78.60;;;;;;5014009;28;20049;-61
2022/09/17 03:56:05;;;;;;;1.00;0.93;;;12.00;78.60;;;;;;5012835;28;20049;-62
2022/09/17 03:58:31;;;;;;;1.30;1.20;;;12.00;78.70;;;;;;5012828;28;20049;-61
2022/09/17 04:00:57;;;;;;;1.48;0.85;;;12.00;79.00;;;;;;5008718;28;20069;-61
2022/09/17 04:03:27;;;;;;;1.13;1.02;;;12.00;79.20;;;;;;5009464;28;20120;-61
2022/09/17 04:05:53;;;;;;;3.75;0.98;;;12.00;79.40;;;;;;5008643;28;20513;-60
2022/09/17 04:08:19;;;;;;;3.42;1.10;;;11.90;79.30;;;;;;5009202;28;20172;-61
2022/09/17 04:10:45;;;;;;;1.10;1.00;;;11.90;79.40;;;;;;5005920;28;20130;-61
2022/09/17 04:13:13;;;;;;;1.38;1.08;;;11.90;79.40;;;;;;5006121;28;20033;-58
2022/09/17 04:15:38;;;;;;;1.23;0.93;;;12.00;79.50;;;;;;5011290;28;20069;-60
2022/09/17 04:18:04;;;;;;;2.90;1.35;;;11.90;79.50;;;;;;5010877;28;20116;-60
2022/09/17 04:20:30;;;;;;;1.30;1.20;;;11.90;79.60;;;;;;5011838;28;20042;-59
2022/09/17 04:22:56;;;;;;;1.17;1.00;;;11.90;79.40;;;;;;5014837;28;20113;-59
2022/09/17 04:25:22;;;;;;;0.80;0.80;;;11.90;79.30;;;;;;5010977;28;20030;-61
2022/09/17 04:27:47;;;;;;;2.10;1.00;;;11.90;79.20;;;;;;5009834;28;20034;-59
2022/09/17 04:30:14;;;;;;;1.52;0.90;;;11.80;79.50;;;;;;5010946;28;20156;-60
2022/09/17 04:32:40;;;;;;;3.38;0.88;;;11.80;79.60;;;;;;5011848;28;20150;-61
2022/09/17 04:35:06;;;;;;;1.15;0.80;;;11.80;79.60;;;;;;5009666;28;20116;-61
2022/09/17 04:37:31;;;;;;;2.42;0.90;;;11.80;80.00;;;;;;5010970;28;20041;-59
2022/09/17 04:39:57;;;;;;;2.67;0.90;;;11.70;80.10;;;;;;5011861;28;20076;-59
2022/09/17 04:42:22;;;;;;;1.67;0.90;;;11.70;80.10;;;;;;5015601;28;20504;-60
2022/09/17 04:44:48;;;;;;;1.35;0.93;;;11.70;80.20;;;;;;5010691;28;20037;-60
2022/09/17 04:47:13;;;;;;;3.05;0.90;;;11.70;80.10;;;;;;5014766;28;20034;-60
2022/09/17 04:49:39;;;;;;;0.80;0.80;;;11.60;80.10;;;;;;5012052;28;20469;-61
2022/09/17 04:52:05;;;;;;;4.10;1.10;;;11.60;80.50;;;;;;5012662;28;20034;-59
2022/09/17 04:54:30;;;;;;;1.67;0.90;;;11.60;80.60;;;;;;5011158;28;20060;-60
2022/09/17 04:56:56;;;;;;;1.23;0.90;;;11.60;80.50;;;;;;5009296;28;20168;-58
2022/09/17 04:59:22;;;;;;;1.10;1.00;;;11.60;80.50;;;;;;5014378;28;20509;-61
2022/09/17 05:01:48;;;;;;;1.02;0.80;;;11.50;80.60;;;;;;5011654;28;20084;-60
2022/09/17 05:04:13;;;;;;;1.63;1.00;;;11.50;80.80;;;;;;5011018;28;20041;-61
2022/09/17 05:06:39;;;;;;;1.30;0.90;;;11.50;81.00;;;;;;5009812;28;20042;-59
2022/09/17 05:09:05;;;;;;;2.67;0.90;;;11.50;81.20;;;;;;5012343;28;20041;-60
2022/09/17 05:11:30;;;;;;;1.88;0.80;;;11.50;81.10;;;;;;5009172;28;20602;-61
2022/09/17 05:13:56;;;;;;;1.65;0.80;;;11.50;81.10;;;;;;5011356;28;20037;-60
2022/09/17 05:16:21;;;;;;;1.48;0.80;;;11.40;80.70;;;;;;5010243;28;20090;-60
2022/09/17 05:18:48;;;;;;;1.05;0.60;;;11.40;81.70;;;;;;5011496;28;20172;-61
2022/09/17 05:21:14;;;;;;;3.15;0.75;;;11.40;81.00;;;;;;5010123;28;20039;-60
2022/09/17 05:23:39;;;;;;;1.20;0.55;;;11.40;81.00;;;;;;5012782;28;20931;-59
2022/09/17 05:26:05;;;;;;;1.27;0.50;;;11.30;80.60;;;;;;5010113;28;20034;-60
2022/09/17 05:28:31;;;;;;;1.40;0.50;;;11.30;80.30;;;;;;5013353;28;20045;-61
2022/09/17 05:31:00;;;;;;;0.82;0.30;;;11.30;80.10;;;;;;5007510;28;20077;-61
2022/09/17 05:33:26;;;;;;;1.92;0.63;;;11.30;79.90;;;;;;5009212;28;20088;-60
2022/09/17 05:35:52;;;;;;;1.48;0.60;;;11.20;80.00;;;;;;5009587;28;22268;-63
2022/09/17 05:38:17;;;;;;;1.10;0.52;;;11.20;80.10;;;;;;5013660;28;20536;-60
2022/09/17 05:40:44;;;;;;;2.25;0.65;;;11.10;80.30;;;;;;5013628;28;20042;-60
2022/09/17 05:43:10;;;;;;;1.23;0.50;;;11.10;80.60;;;;;;5016111;28;20036;-61
2022/09/17 05:45:36;;;;;;;1.80;0.70;;;11.10;80.30;;;;;;5013175;28;20122;-61
2022/09/17 05:48:04;;;;;;;5.45;0.60;;;11.10;80.60;;;;;;5014304;28;20653;-61
2022/09/17 05:50:30;;;;;;;0.93;0.52;;;11.00;80.70;;;;;;5013972;28;20034;-62
2022/09/17 05:52:56;;;;;;;1.08;0.60;;;11.00;80.80;;;;;;5014405;28;20042;-61
2022/09/17 05:55:22;;;;;;;1.25;0.50;;;11.00;81.00;;;;;;5011486;28;20080;-61
2022/09/17 05:57:49;;;;;;;1.65;0.70;;;11.10;81.20;;;;;;5012648;28;20072;-61
2022/09/17 06:00:15;;;;;;;2.47;0.57;;;11.10;81.20;;;;;;5009715;28;20513;-60
2022/09/17 06:02:41;;;;;;;1.20;0.60;;;11.10;81.20;;;;;;5011407;28;20176;-60
2022/09/17 06:05:07;;;;;;;2.13;0.50;;;11.10;81.20;;;;;;5010328;28;20292;-61
2022/09/17 06:07:37;;;;;;;1.15;0.50;;;11.10;81.10;;;;;;5011279;28;20044;-61
2022/09/17 06:10:05;;;;;;;1.40;0.73;;;11.20;81.20;;;;;;5011745;28;20046;-60
2022/09/17 06:12:31;;;;;;;2.25;0.70;;;11.20;81.20;;;;;;5007203;28;20422;-61
2022/09/17 06:14:56;;;;;;;1.05;0.65;;;11.20;81.20;;;;;;5010366;28;20489;-60
2022/09/17 06:17:22;;;;;;;1.85;0.65;;;11.20;81.30;;;;;;5013811;28;20042;-61
2022/09/17 06:19:48;;;;;;;1.63;0.60;;;11.30;81.50;;;;;;5010176;28;20642;-61
2022/09/17 06:22:13;;;;;;;2.40;0.60;;;11.30;81.50;;;;;;5012181;28;20508;-61
2022/09/17 06:24:39;;;;;;;2.88;1.00;;;11.30;81.40;;;;;;5006015;28;20034;-62
2022/09/17 06:27:04;;;;;;;1.48;1.15;;;11.30;81.30;;;;;;4995431;28;20038;-59
2022/09/17 06:29:30;;;;;;;4.78;2.35;;;11.30;81.20;;;;;;5005768;28;20132;-61
2022/09/17 06:31:55;;;;;;;2.72;1.90;;;11.30;81.30;;;;;;5004279;28;20041;-62
2022/09/17 06:34:21;;;;;;;3.65;1.40;;;11.30;81.10;;;;;;5012662;28;20037;-60
2022/09/17 06:36:50;;;;;;;1.85;0.90;;;11.30;81.20;;;;;;5008236;28;20041;-61
2022/09/17 06:39:16;;;;;;;1.90;0.80;;;11.30;81.30;;;;;;5006894;28;20058;-61
2022/09/17 06:41:42;;;;;;;1.20;0.80;;;11.30;81.20;;;;;;5007325;28;20041;-61
2022/09/17 06:44:08;;;;;;;2.90;0.90;;;11.40;81.20;;;;;;5008663;28;20033;-60
2022/09/17 06:46:33;;;;;;;2.22;0.80;;;11.40;81.00;;;;;;5006651;28;20059;-61
2022/09/17 06:48:59;;;;;;;1.02;0.63;;;11.40;81.00;;;;;;5009982;28;20056;-60
2022/09/17 06:51:24;;;;;;;2.17;0.90;;;11.50;80.80;;;;;;5011265;28;20068;-61
2022/09/17 06:53:50;;;;;;;0.70;0.63;;;11.50;80.60;;;;;;5006472;28;20037;-61
2022/09/17 06:56:16;;;;;;;1.88;0.65;;;11.50;80.50;;;;;;5004795;28;20040;-61
2022/09/17 06:58:42;;;;;;;2.25;0.60;;;11.50;80.60;;;;;;5006753;28;20363;-61
2022/09/17 07:01:10;;;;;;;1.67;0.70;;;11.50;80.70;;;;;;5008190;28;20046;-61
2022/09/17 07:03:36;;;;;;;1.10;0.63;;;11.60;81.00;;;;;;5002423;28;20037;-60
2022/09/17 07:06:02;;;;;;;1.40;0.60;;;11.60;80.90;;;;;;5003165;28;23261;-60
2022/09/17 07:08:28;;;;;;;1.23;0.70;;;11.70;80.50;;;;;;5002027;28;20185;-61
2022/09/17 07:10:57;;;;;;;1.42;0.60;;;11.70;80.50;;;;;;5004126;28;20038;-60
2022/09/17 07:13:23;;;;;;;3.25;0.80;;;11.70;80.50;;;;;;5005279;28;20065;-61
2022/09/17 07:15:57;;;;;;;1.95;0.75;;;11.80;80.30;;;;;;5005026;28;20045;-61
2022/09/17 07:18:23;;;;;;;4.13;0.93;;;11.80;79.60;;;;;;5005007;28;20040;-62
2022/09/17 07:21:00;;;;;;;3.42;1.27;;;11.80;79.60;;;;;;5004368;28;20042;-60
2022/09/17 07:23:29;;;;;;;5.65;1.20;;;11.90;78.70;;;;;;5001229;28;20116;-61
2022/09/17 07:25:57;;;;;;;4.60;1.02;;;11.90;78.70;;;;;;5003663;28;20148;-62
2022/09/17 07:28:24;;;;;;;4.03;1.20;;;11.90;78.60;;;;;;5008483;28;20536;-59
2022/09/17 07:30:51;;;;;;;4.75;1.50;;;11.90;78.90;;;;;;5004975;28;20112;-59
2022/09/17 07:33:22;;;;;;;5.03;1.20;;;11.90;78.60;;;;;;5005630;28;20045;-61
2022/09/17 07:35:58;;;;;;;1.95;0.80;;;12.00;78.20;;;;;;5003694;28;20030;-59
2022/09/17 07:38:25;;;;;;;5.85;1.17;;;12.00;78.40;;;;;;5003289;28;20163;-60
2022/09/17 07:40:58;;;;;;;3.90;1.23;;;12.10;78.30;;;;;;5003754;28;20115;-58
2022/09/17 07:43:25;;;;;;;2.80;1.08;;;12.10;77.90;;;;;;5007804;28;20037;-59
2022/09/17 07:45:52;;;;;;;3.60;0.88;;;12.20;77.50;;;;;;5004432;28;20041;-61
2022/09/17 07:48:19;;;;;;;4.32;0.90;;;12.20;77.90;;;;;;5008659;28;20034;-61
2022/09/17 07:50:44;;;;;;;5.53;1.20;;;12.20;76.60;;;;;;5007234;28;20065;-62
2022/09/17 07:53:10;;;;;;;1.20;0.77;;;12.30;76.40;;;;;;5003033;28;20152;-62
2022/09/17 07:55:36;;;;;;;3.67;1.00;;;12.30;76.10;;;;;;5007108;28;20046;-62
2022/09/17 07:58:01;;;;;;;1.90;0.60;;;12.30;75.60;;;;;;5005449;28;20125;-61
2022/09/17 08:00:27;;;;;;;3.95;0.80;;;12.30;74.90;;;;;;5006439;28;20417;-62
2022/09/17 08:02:54;;;;;;;2.65;1.13;;;12.30;74.20;;;;;;5007123;28;20103;-61
2022/09/17 08:05:20;;;;;;;3.40;0.73;;;12.30;74.30;;;;;;5003668;28;20038;-60
2022/09/17 08:07:50;;;;;;;2.60;0.82;;;12.30;73.60;;;;;;5004812;28;20457;-61
2022/09/17 08:10:20;;;;;;;6.38;1.10;;;12.30;73.40;;;;;;5008174;28;20464;-60
2022/09/17 08:12:49;;;;;;;2.47;0.60;;;12.30;73.90;;;;;;4999063;28;20046;-61
2022/09/17 08:15:18;;;;;;;3.33;1.08;;;12.30;73.90;;;;;;5004181;28;20448;-60
2022/09/17 08:17:44;;;;;;;4.65;1.00;;;12.30;73.50;;;;;;5002767;28;20049;-58
2022/09/17 08:20:11;;;;;;;3.33;0.63;;;12.30;74.00;;;;;;5004309;28;20049;-61
2022/09/17 08:22:36;;;;;;;5.55;0.90;;;12.30;73.70;;;;;;5002906;28;20038;-61
2022/09/17 08:25:03;;;;;;;3.22;0.70;;;12.30;74.30;;;;;;5000023;28;20959;-60
2022/09/17 08:27:30;;;;;;;4.85;0.82;;;12.30;73.60;;;;;;5004055;28;20049;-60
2022/09/17 08:29:55;;;;;;;1.33;0.75;;;12.40;74.00;;;;;;5001364;28;20037;-60
2022/09/17 08:32:21;;;;;;;3.22;0.60;;;12.50;74.10;;;;;;5002386;28;20042;-59
2022/09/17 08:34:46;;;;;;;1.33;0.57;;;12.50;73.30;;;;;;5004042;28;20401;-60
2022/09/17 08:37:12;;;;;;;1.60;0.60;;;12.60;73.20;;;;;;5002029;28;20065;-60
2022/09/17 08:39:38;;;;;;;5.65;0.98;;;12.60;73.20;;;;;;5004447;28;20038;-61
2022/09/17 08:42:18;;;;;;;3.42;0.88;;;12.60;73.00;;;;;;5001997;28;20037;-59
2022/09/17 08:44:47;;;;;;;5.32;0.85;;;12.70;73.00;;;;;;5004718;28;20234;-59
2022/09/17 08:47:22;;;;;;;2.63;0.68;;;12.80;71.40;;;;;;5002057;28;20038;-60
2022/09/17 08:49:59;;;;;;;1.80;0.60;;;12.70;71.80;;;;;;5007182;28;20034;-59
2022/09/17 08:52:33;;;;;;;3.28;0.90;;;12.70;71.30;;;;;;5000750;28;20061;-60
2022/09/17 08:55:24;;;;;;;2.15;0.52;;;12.80;71.10;;;;;;5004483;28;20117;-60
2022/09/17 08:58:27;;;;;;;4.07;0.80;;;12.80;70.50;;;;;;5007734;28;20584;-59
2022/09/17 09:01:06;;;;;;;2.15;0.60;;;12.90;70.60;;;;;;5033750;28;20072;-60
2022/09/17 09:03:51;;;;;;;2.53;0.88;;;12.90;69.90;;;;;;5035158;28;20045;-60
2022/09/17 09:06:18;;;;;;;5.30;1.17;;;12.90;69.80;;;;;;5032868;28;20667;-60
2022/09/17 09:08:55;;;;;;;1.45;0.88;;;12.90;70.90;;;;;;5031309;28;20040;-60
2022/09/17 09:11:25;;;;;;;3.00;0.90;;;12.90;71.30;;;;;;5034276;28;20037;-60
2022/09/17 09:13:58;;;;;;;2.95;0.60;;;12.90;71.40;;;;;;5033884;28;20061;-60
2022/09/17 09:16:27;;;;;;;1.02;0.45;;;13.00;70.60;;;;;;5033774;28;20037;-61
2022/09/17 09:19:03;;;;;;;2.53;0.60;;;13.00;70.20;;;;;;5038043;28;20037;-60
2022/09/17 09:21:38;;;;;;;2.30;0.55;;;13.00;69.70;;;;;;5036891;28;20084;-61
2022/09/17 09:24:21;;;;;;;;;;;13.00;70.20;;;;;;5035235;28;20512;-61
2022/09/17 09:26:54;;;;;;;2.22;0.80;;;13.00;69.00;;;;;;5024842;28;19921;-62
2022/09/17 09:29:35;;;;;;;1.20;0.63;;;13.00;70.80;;;;;;5029081;28;20037;-62
2022/09/17 09:32:11;;;;;;;1.83;0.60;;;13.00;71.40;;;;;;5019532;28;20195;-60
2022/09/17 09:34:37;;;;;;;1.02;0.50;;;13.00;71.60;;;;;;5026754;28;20532;-62
2022/09/17 09:37:24;;;;;;;1.13;0.30;;;13.00;72.00;;;;;;5024268;28;20045;-60
2022/09/17 09:39:53;;;;;;;1.40;0.40;;;13.00;71.30;;;;;;5022988;28;20040;-57
2022/09/17 09:42:29;;;;;;;0.38;0.20;;;13.10;71.30;;;;;;5023386;28;20070;-61
2022/09/17 09:45:36;;;;;;;0.38;0.20;;;13.10;70.70;;;;;;5020347;28;20186;-62
2022/09/17 09:48:10;;;;;;;1.50;0.35;;;13.00;71.10;;;;;;5032104;28;20033;-61
2022/09/17 09:51:17;;;;;;;1.73;0.30;;;13.00;71.40;;;;;;5023707;28;20168;-62
2022/09/17 09:54:16;;;;;;;1.25;0.40;;;13.00;70.90;;;;;;5027460;28;20493;-62
2022/09/17 09:56:53;;;;;;;0.90;0.25;;;13.00;71.30;;;;;;5027569;28;20045;-62
2022/09/17 09:59:19;;;;;;;1.02;0.30;;;13.00;71.70;;;;;;5031236;28;20033;-62
2022/09/17 10:01:45;;;;;;;2.05;0.30;;;13.10;70.80;;;;;;5033742;28;20036;-62
2022/09/17 10:04:18;;;;;;;1.63;0.52;;;13.10;70.90;;;;;;5030769;28;20025;-61
2022/09/17 10:06:45;;;;;;;3.72;0.77;;;13.00;70.10;;;;;;5034193;28;20524;-61
2022/09/17 10:09:13;;;;;;;1.67;0.43;;;13.00;70.20;;;;;;5034637;28;20055;-61
2022/09/17 10:11:38;;;;;;;1.60;0.32;;;13.00;70.40;;;;;;5027980;28;20056;-61
2022/09/17 10:14:25;;;;;;;3.03;0.60;;;13.00;70.30;;;;;;5033853;28;20421;-61
2022/09/17 10:17:22;;;;;;;2.92;0.40;;;13.00;68.50;;;;;;5032498;28;20088;-60
2022/09/17 10:20:10;;;;;;;2.63;0.40;;;13.10;69.70;;;;;;5031567;28;20045;-62
2022/09/17 10:22:42;;;;;;;1.88;0.60;;;13.10;69.50;;;;;;5033357;28;20038;-60
2022/09/17 10:25:29;;;;;;;1.88;0.50;;;13.10;69.20;;;;;;5036156;28;20242;-61
2022/09/17 10:27:56;;;;;;;2.88;0.63;;;13.20;69.10;;;;;;5032993;28;20074;-61
2022/09/17 10:30:23;;;;;;;4.80;0.80;;;13.20;70.20;;;;;;5031293;28;20037;-61
2022/09/17 10:33:15;;;;;;;1.10;0.30;;;13.20;69.90;;;;;;5035883;28;20529;-59
2022/09/17 10:36:07;;;;;;;2.13;0.50;;;13.30;68.40;;;;;;5034057;28;20512;-60
2022/09/17 10:38:34;;;;;;;4.57;0.70;;;13.40;68.40;;;;;;5036425;28;20142;-60
2022/09/17 10:41:20;;;;;;;4.03;0.60;;;13.50;69.60;;;;;;5026648;28;20146;-62
2022/09/17 10:43:47;;;;;;;1.92;0.75;;;13.40;69.80;;;;;;5027108;28;20136;-62
2022/09/17 10:46:24;;;;;;;2.28;0.60;;;13.40;70.60;;;;;;5031783;28;20044;-61
2022/09/17 10:49:05;;;;;;;2.92;0.60;;;13.30;70.90;;;;;;5029981;28;20616;-60
2022/09/17 10:51:31;;;;;;;2.50;0.50;;;13.10;71.60;;;;;;5033204;28;20041;-62
2022/09/17 10:54:12;;;;;;;2.55;0.70;;;13.00;71.70;;;;;;5023833;28;20037;-61
2022/09/17 10:56:43;;;;;;;2.97;0.63;;;12.90;73.20;;;;;;5028235;28;20037;-61
2022/09/17 10:59:24;;;;;;;3.63;0.52;;;12.90;73.00;;;;;;5032401;28;20037;-61
2022/09/17 11:02:26;;;;;;;1.60;0.50;;;12.80;73.20;;;;;;5033048;28;20140;-61
2022/09/17 11:04:58;;;;;;;1.38;0.40;;;12.90;74.10;;;;;;5033869;28;20121;-61
2022/09/17 11:07:33;;;;;;;1.58;0.40;;;13.00;73.30;;;;;;5030812;28;20241;-61
2022/09/17 11:10:02;;;;;;;4.35;0.70;;;13.10;69.70;;;;;;5028363;28;20039;-59
2022/09/17 11:12:53;;;;;;;4.65;0.70;;;13.10;70.80;;;;;;5033010;28;20088;-61
2022/09/17 11:15:43;;;;;;;3.33;0.70;;;13.20;70.40;;;;;;5035021;28;20056;-60
2022/09/17 11:18:14;;;;;;;3.67;0.63;;;13.20;70.50;;;;;;5036334;28;20095;-60
2022/09/17 11:20:47;;;;;;;2.95;0.60;;;13.30;71.10;;;;;;5036131;28;20115;-59
2022/09/17 11:23:34;;;;;;;3.42;0.60;;;13.40;70.70;;;;;;5035549;28;20037;-61
2022/09/17 11:26:44;;;;;;;5.72;1.17;;;13.40;69.70;;;;;;5031825;28;20029;-60
2022/09/17 11:29:25;;;;;;;1.58;0.50;;;13.40;70.20;;;;;;5030839;28;20100;-60
2022/09/17 11:32:09;;;;;;;3.35;0.63;;;13.50;71.40;;;;;;5032234;28;20029;-61
2022/09/17 11:34:55;;;;;;;2.50;0.60;;;13.50;71.80;;;;;;5032213;28;20497;-60
2022/09/17 11:37:42;;;;;;;4.40;0.88;;;13.60;70.00;;;;;;5031331;28;20412;-61
2022/09/17 11:40:15;;;;;;;4.80;0.88;;;13.70;69.50;;;;;;5030904;28;20113;-59
2022/09/17 11:42:55;;;;;;;3.47;0.60;;;13.80;69.70;;;;;;5031115;28;20042;-58
2022/09/17 11:45:29;;;;;;;6.97;1.10;;;13.80;69.60;;;;;;5029678;28;20036;-61
2022/09/17 11:48:02;;;;;;;3.70;1.00;;;13.90;69.10;;;;;;5033981;28;20565;-61
2022/09/17 11:50:34;;;;;;;3.70;0.93;;;14.00;68.30;;;;;;5032407;28;20128;-62
2022/09/17 11:53:14;;;;;;;5.60;0.90;;;14.10;67.00;;;;;;5031101;28;20067;-61
2022/09/17 11:55:53;;;;;;;1.98;0.80;;;14.00;67.10;;;;;;5032164;28;20177;-60
2022/09/17 11:58:38;;;;;;;2.08;0.98;;;14.00;67.10;;;;;;5033535;28;20055;-62
2022/09/17 12:01:12;;;;;;;;;;;14.00;67.30;;;;;;5033921;28;20069;-60
2022/09/17 12:03:44;;;;;;;;;;;14.10;66.80;;;;;;5031386;28;19967;-60
2022/09/17 12:06:15;;;;;;;;;;;14.10;67.00;;;;;;5030062;28;19913;-60
2022/09/17 12:08:43;;;;;;;;;;;14.20;67.30;;;;;;5032221;28;19913;-60
2022/09/17 12:11:13;;;;;;;;;;;14.30;68.00;;;;;;5031754;28;19913;-60
2022/09/17 12:13:41;;;;;;;;;;;14.40;67.00;;;;;;5032993;28;19912;-59
2022/09/17 12:16:09;;;;;;;;;;;14.50;66.40;;;;;;5033410;28;19913;-61
2022/09/17 12:18:43;;;;;;;;;;;14.70;65.70;;;;;;5032250;28;19916;-61
2022/09/17 12:21:10;;;;;;;;;;;14.80;61.90;;;;;;5034079;28;19921;-60
2022/09/17 12:23:39;;;;;;;;;;;14.90;59.30;;;;;;5031427;28;19928;-62
2022/09/17 12:26:31;;;;;;;;;;;15.00;58.10;;;;;;5034110;28;20297;-59
2022/09/17 12:29:02;;;;;;;;;;;15.00;59.20;;;;;;5017086;28;19961;-60
2022/09/17 12:31:33;;;;;;;;;;;15.10;58.80;;;;;;5015276;28;19913;-60
2022/09/17 12:34:11;;;;;;;;;;;15.00;58.40;;;;;;5014742;28;19937;-62
2022/09/17 12:36:41;;;;;;;;;;;15.10;58.60;;;;;;5014358;28;19920;-60
2022/09/17 12:39:14;;;;;;;;;;;15.00;57.30;;;;;;5017950;28;19914;-61
2022/09/17 12:41:49;;;;;;;;;;;15.10;58.90;;;;;;5017440;28;20419;-60
2022/09/17 12:44:14;;;;;;;;;;;15.00;59.60;;;;;;5017209;28;19955;-61
2022/09/17 12:46:51;;;;;;;;;;;15.10;59.30;;;;;;5015369;28;19948;-60
2022/09/17 12:49:23;;;;;;;;;;;15.00;59.60;;;;;;5017591;28;20556;-61
2022/09/17 12:51:54;;;;;;;;;;;15.00;58.90;;;;;;5015297;28;20007;-62
2022/09/17 12:54:20;;;;;;;;;;;15.00;59.70;;;;;;5016746;28;20403;-61
2022/09/17 12:56:51;;;;;;;;;;;15.00;59.80;;;;;;5016983;28;20019;-61
2022/09/17 12:59:19;;;;;;;;;;;15.00;59.90;;;;;;5012886;28;19914;-62
2022/09/17 13:02:03;;;;;;;;;;;15.10;61.00;;;;;;5015416;28;20004;-60
2022/09/17 13:04:34;;;;;;;;;;;15.10;60.10;;;;;;5017163;28;20016;-62
2022/09/17 13:07:15;;;;;;;;;;;15.10;59.90;;;;;;5015689;28;19989;-59
2022/09/17 13:09:47;;;;;;;;;;;15.10;57.20;;;;;;5016049;28;19940;-63
2022/09/17 13:12:31;;;;;;;;;;;15.20;58.20;;;;;;5012078;28;19952;-60
2022/09/17 13:15:01;;;;;;;;;;;15.20;55.60;;;;;;5014726;28;19917;-61
2022/09/17 13:17:38;;;;;;;;;;;15.20;56.90;;;;;;5016683;28;19913;-60
2022/09/17 13:20:14;;;;;;;;;;;15.20;57.10;;;;;;5025332;28;19920;-59